Time;durP1;ratioP1;P1;durP2;ratioP2;P2;SDS_P1;SDS_P2;PMS_P1;PMS_P2;Temp;Humidity;BMP_temperature;BMP_pressure;BME280_temperature;BME280_humidity;BME280_pressure;Samples;Min_cycle;Max_cycle;Signal;HPM_P1;HPM_P2
2023/03/24 00:01:15;;;;;;;3.08;1.75;;;;;;;6.97;93.07;98585.70;1649741;84;21176;-57
2023/03/24 00:03:44;;;;;;;4.77;2.13;;;;;;;6.97;93.50;98583.11;1645621;84;21022;-56
2023/03/24 00:06:12;;;;;;;4.72;2.20;;;;;;;6.94;93.84;98579.74;1647823;84;21105;-56
2023/03/24 00:08:40;;;;;;;4.17;2.40;;;;;;;6.93;93.12;98579.84;1649603;84;21502;-58
2023/03/24 00:11:08;;;;;;;4.85;2.15;;;;;;;6.94;93.95;98582.34;1629077;85;21017;-57
2023/03/24 00:13:38;;;;;;;3.33;1.98;;;;;;;6.94;94.55;98582.34;1642306;84;21671;-57
2023/03/24 00:16:08;;;;;;;2.65;2.00;;;;;;;6.94;95.70;98586.23;1648406;83;21116;-56
2023/03/24 00:18:35;;;;;;;4.22;1.90;;;;;;;6.93;95.78;98591.05;1638929;83;21122;-57
2023/03/24 00:21:03;;;;;;;3.55;1.90;;;;;;;6.90;94.46;98583.42;1645843;85;21005;-57
2023/03/24 00:23:34;;;;;;;6.03;2.47;;;;;;;6.87;94.73;98584.05;1643463;84;21034;-57
2023/03/24 00:26:11;;;;;;;4.90;2.40;;;;;;;6.87;94.12;98586.17;1649762;83;21071;-56
2023/03/24 00:28:37;;;;;;;;;;;;;;;6.85;94.11;98579.38;1659077;83;21234;-56
2023/03/24 00:31:05;;;;;;;3.70;2.20;;;;;;;6.82;94.13;98576.48;1641721;85;20150;-57
2023/03/24 00:33:33;;;;;;;3.40;2.33;;;;;;;6.79;93.73;98564.97;1626108;85;21010;-56
2023/03/24 00:36:03;;;;;;;3.22;2.00;;;;;;;6.79;94.08;98559.77;1662120;83;21612;-57
2023/03/24 00:38:29;;;;;;;2.83;1.95;;;;;;;6.78;94.03;98560.70;1655321;84;21079;-56
2023/03/24 00:40:57;;;;;;;5.77;2.63;;;;;;;6.76;93.77;98559.94;1644628;83;21657;-56
2023/03/24 00:43:24;;;;;;;4.33;2.25;;;;;;;6.73;93.50;98557.49;1657159;83;21097;-56
2023/03/24 00:46:00;;;;;;;4.37;2.50;;;;;;;6.69;94.15;98552.06;1651298;83;21022;-56
2023/03/24 00:48:28;;;;;;;4.12;2.33;;;;;;;6.65;94.05;98562.22;1645342;85;21066;-56
2023/03/24 00:50:55;;;;;;;4.50;2.75;;;;;;;6.60;95.28;98559.02;1651125;83;21043;-56
2023/03/24 00:53:24;;;;;;;5.15;2.65;;;;;;;6.62;96.63;98557.19;1648146;83;21525;-57
2023/03/24 00:55:51;;;;;;;3.08;2.27;;;;;;;6.64;96.36;98560.56;1648884;83;21071;-56
2023/03/24 00:58:20;;;;;;;4.70;2.70;;;;;;;6.66;96.83;98563.89;1663099;83;21054;-56
2023/03/24 01:00:49;;;;;;;9.60;2.62;;;;;;;6.67;96.21;98557.34;1657307;83;21033;-56
2023/03/24 01:03:18;;;;;;;4.60;2.47;;;;;;;6.65;95.00;98553.98;1651246;83;21086;-56
2023/03/24 01:05:47;;;;;;;3.98;2.20;;;;;;;6.62;95.67;98557.19;1640821;84;21141;-57
2023/03/24 01:08:13;;;;;;;4.47;2.40;;;;;;;6.60;94.75;98546.05;1642777;84;21105;-56
2023/03/24 01:10:49;;;;;;;4.70;2.35;;;;;;;6.59;95.98;98539.19;1650252;83;21082;-56
2023/03/24 01:13:09;;;;;;;4.50;2.60;;;;;;;6.58;96.86;98545.27;1642793;84;21238;-57
2023/03/24 01:15:35;;;;;;;5.20;2.50;;;;;;;6.59;96.17;98544.38;1653604;84;21060;-57
2023/03/24 01:18:02;;;;;;;3.95;2.40;;;;;;;6.57;95.14;98546.20;1650302;84;21111;-56
2023/03/24 01:20:34;;;;;;;5.97;3.50;;;;;;;6.57;95.04;98539.72;1649076;85;21165;-56
2023/03/24 01:23:03;;;;;;;5.35;2.95;;;;;;;6.58;95.35;98533.60;1649138;83;21102;-56
2023/03/24 01:25:30;;;;;;;3.85;2.45;;;;;;;6.58;94.86;98537.49;1653202;85;21123;-56
2023/03/24 01:27:57;;;;;;;4.92;2.58;;;;;;;6.54;95.02;98541.17;1653522;83;20948;-56
2023/03/24 01:30:25;;;;;;;6.28;2.98;;;;;;;6.53;94.63;98544.69;1651181;84;21066;-57
2023/03/24 01:32:52;;;;;;;4.35;2.70;;;;;;;6.49;94.49;98551.76;1646738;85;21095;-57
2023/03/24 01:35:20;;;;;;;3.47;2.42;;;;;;;6.49;94.43;98551.76;1657528;84;21044;-57
2023/03/24 01:37:47;;;;;;;5.53;3.20;;;;;;;6.46;94.90;98547.56;1654587;83;21024;-58
2023/03/24 01:40:20;;;;;;;9.10;2.45;;;;;;;6.45;94.63;98542.47;1647299;83;21037;-56
2023/03/24 01:42:47;;;;;;;4.37;2.40;;;;;;;6.43;94.65;98539.93;1646843;82;21023;-56
2023/03/24 01:45:37;;;;;;;3.55;2.52;;;;;;;6.39;94.32;98541.02;1651435;83;21034;-56
2023/03/24 01:48:05;;;;;;;4.53;2.92;;;;;;;6.37;94.51;98535.05;1645227;84;21017;-56
2023/03/24 01:50:32;;;;;;;3.50;2.30;;;;;;;6.36;94.47;98538.58;1647092;85;21117;-56
2023/03/24 01:53:00;;;;;;;3.12;2.22;;;;;;;6.32;94.18;98535.73;1649654;84;21085;-57
2023/03/24 01:55:29;;;;;;;4.15;2.15;;;;;;;6.26;93.78;98527.80;1655597;83;21561;-56
2023/03/24 01:57:58;;;;;;;4.97;2.67;;;;;;;6.22;93.86;98525.45;1655638;83;21099;-56
2023/03/24 02:00:26;;;;;;;3.42;2.12;;;;;;;6.18;93.85;98523.91;1654229;83;21069;-58
2023/03/24 02:02:57;;;;;;;6.03;2.62;;;;;;;6.16;93.96;98526.59;1650708;83;21114;-57
2023/03/24 02:05:26;;;;;;;4.30;2.90;;;;;;;6.16;93.93;98530.91;1641629;84;21059;-57
2023/03/24 02:08:02;;;;;;;6.33;2.77;;;;;;;6.15;93.89;98531.83;1654227;83;21058;-56
2023/03/24 02:10:31;;;;;;;5.42;2.60;;;;;;;6.13;94.06;98533.64;1639945;85;21113;-57
2023/03/24 02:12:58;;;;;;;5.12;2.70;;;;;;;6.16;94.20;98538.67;1648150;84;21552;-57
2023/03/24 02:15:28;;;;;;;6.92;3.50;;;;;;;6.21;94.37;98545.78;1655329;83;21019;-57
2023/03/24 02:17:58;;;;;;;5.45;3.05;;;;;;;6.25;94.35;98546.03;1648785;83;20995;-57
2023/03/24 02:20:49;;;;;;;4.67;3.02;;;;;;;6.29;94.63;98534.59;1646172;85;21074;-57
2023/03/24 02:23:31;;;;;;;5.95;3.00;;;;;;;6.33;94.61;98543.05;1643342;83;21532;-56
2023/03/24 02:26:17;;;;;;;4.47;2.90;;;;;;;6.34;95.02;98540.39;1654541;83;21032;-56
2023/03/24 02:28:56;;;;;;;6.35;3.20;;;;;;;6.37;94.74;98544.13;1652936;84;21139;-59
2023/03/24 02:31:32;;;;;;;4.25;2.85;;;;;;;6.38;95.07;98547.09;1657090;84;21034;-56
2023/03/24 02:34:28;;;;;;;4.97;3.00;;;;;;;6.36;95.00;98546.35;1648004;83;21072;-56
2023/03/24 02:37:20;;;;;;;6.08;3.42;;;;;;;6.32;94.72;98544.80;1653570;83;21157;-59
2023/03/24 02:40:11;;;;;;;6.80;4.70;;;;;;;6.24;94.67;98528.78;1656778;84;21011;-57
2023/03/24 02:42:44;;;;;;;8.20;4.85;;;;;;;6.21;94.59;98531.53;1649078;83;21095;-56
2023/03/24 02:45:28;;;;;;;7.92;4.97;;;;;;;6.15;94.54;98521.46;1650549;83;21058;-56
2023/03/24 02:48:17;;;;;;;8.15;6.10;;;;;;;6.11;94.56;98518.65;1652603;84;21628;-57
2023/03/24 02:50:47;;;;;;;9.75;6.60;;;;;;;6.04;94.61;98517.63;1654017;83;21073;-56
2023/03/24 02:53:32;;;;;;;11.43;7.25;;;;;;;6.01;95.05;98522.95;1647437;83;21077;-57
2023/03/24 02:56:11;;;;;;;8.85;7.20;;;;;;;6.00;94.93;98517.86;1652014;84;21628;-56
2023/03/24 02:58:50;;;;;;;9.95;7.10;;;;;;;5.99;95.01;98518.76;1648610;84;21078;-58
2023/03/24 03:01:36;;;;;;;10.32;7.10;;;;;;;5.98;95.22;98516.63;1646245;83;21017;-57
2023/03/24 03:04:15;;;;;;;10.10;7.87;;;;;;;5.98;95.27;98521.81;1650474;83;21052;-57
2023/03/24 03:06:45;;;;;;;11.93;7.70;;;;;;;6.01;95.29;98520.36;1649942;83;21006;-57
2023/03/24 03:09:15;;;;;;;13.28;9.03;;;;;;;6.05;95.20;98524.97;1656608;83;21075;-56
2023/03/24 03:11:44;;;;;;;9.88;8.70;;;;;;;6.10;95.29;98527.31;1616751;86;21119;-56
2023/03/24 03:14:20;;;;;;;13.13;10.08;;;;;;;6.13;95.79;98521.52;1662096;83;21050;-56
2023/03/24 03:16:53;;;;;;;15.48;10.30;;;;;;;6.16;95.79;98512.77;1655833;83;21065;-56
2023/03/24 03:19:25;;;;;;;13.45;10.23;;;;;;;6.19;95.52;98518.66;1624722;85;21016;-58
2023/03/24 03:21:53;;;;;;;15.03;11.05;;;;;;;6.22;95.68;98518.97;1640802;84;21076;-57
2023/03/24 03:24:26;;;;;;;13.22;11.05;;;;;;;6.26;95.62;98512.70;1656065;84;21082;-56
2023/03/24 03:26:56;;;;;;;14.55;11.12;;;;;;;6.28;96.03;98514.77;1646605;84;21056;-56
2023/03/24 03:29:26;;;;;;;16.45;12.78;;;;;;;6.32;95.86;98511.10;1656461;83;21091;-56
2023/03/24 03:31:58;;;;;;;15.90;12.60;;;;;;;6.39;95.89;98512.49;1659968;84;21560;-56
2023/03/24 03:34:48;;;;;;;15.50;11.53;;;;;;;6.41;95.99;98510.67;1639816;83;21057;-56
2023/03/24 03:37:21;;;;;;;17.00;13.03;;;;;;;6.44;96.08;98518.30;1651831;84;21043;-56
2023/03/24 03:39:54;;;;;;;18.87;12.65;;;;;;;6.52;96.03;98513.16;1656100;83;21085;-56
2023/03/24 03:42:21;;;;;;;16.93;13.00;;;;;;;6.56;96.57;98508.23;1641878;83;21037;-56
2023/03/24 03:44:47;;;;;;;13.88;12.13;;;;;;;6.58;97.01;98508.97;1648341;83;21033;-56
2023/03/24 03:47:14;;;;;;;14.53;11.73;;;;;;;6.60;97.30;98497.60;1658773;83;21037;-56
2023/03/24 03:49:41;;;;;;;13.90;11.50;;;;;;;6.63;97.03;98489.66;1645240;83;21099;-56
2023/03/24 03:52:08;;;;;;;14.90;12.10;;;;;;;6.67;96.66;98490.37;1626966;85;21498;-56
2023/03/24 03:54:37;;;;;;;16.07;12.10;;;;;;;6.68;96.77;98485.08;1642458;85;21193;-56
2023/03/24 03:57:03;;;;;;;12.50;11.05;;;;;;;6.67;96.63;98491.66;1603864;85;21035;-56
2023/03/24 03:59:33;;;;;;;17.33;11.53;;;;;;;6.66;96.95;98488.67;1642399;84;21005;-56
2023/03/24 04:02:15;;;;;;;14.13;12.37;;;;;;;6.65;97.42;98483.11;1651467;83;21064;-56
2023/03/24 04:05:09;;;;;;;15.10;12.18;;;;;;;6.64;97.59;98477.55;1649610;83;21598;-56
2023/03/24 04:07:56;;;;;;;14.75;12.15;;;;;;;6.63;97.53;98478.45;1568456;88;22590;-56
2023/03/24 04:10:41;;;;;;;12.47;11.18;;;;;;;6.62;98.82;98469.01;1571679;88;21029;-57
2023/03/24 04:13:26;;;;;;;15.23;12.45;;;;;;;6.64;98.18;98460.70;1576494;89;21075;-56
2023/03/24 04:15:56;;;;;;;11.90;10.38;;;;;;;6.63;98.37;98454.65;1578772;88;21182;-56
2023/03/24 04:18:31;;;;;;;11.85;10.55;;;;;;;6.67;98.14;98454.05;1569658;88;21116;-57
2023/03/24 04:21:08;;;;;;;12.07;10.72;;;;;;;6.67;98.23;98454.05;1557071;88;21730;-56
2023/03/24 04:23:44;;;;;;;12.03;10.30;;;;;;;6.72;98.28;98449.44;1575511;88;21113;-56
2023/03/24 04:26:25;;;;;;;10.65;9.50;;;;;;;6.75;98.95;98444.13;1560705;89;21107;-56
2023/03/24 04:29:11;;;;;;;11.60;9.70;;;;;;;6.78;99.31;98438.77;1566214;89;21173;-57
2023/03/24 04:31:53;;;;;;;12.37;9.58;;;;;;;6.80;99.15;98433.48;1560971;89;21072;-56
2023/03/24 04:34:24;;;;;;;11.08;9.48;;;;;;;6.82;99.89;98427.30;1508033;93;21132;-57
2023/03/24 04:36:54;;;;;;;12.50;8.73;;;;;;;6.84;100.00;98425.47;1509860;93;21090;-56
2023/03/24 04:39:27;;;;;;;13.70;9.23;;;;;;;6.86;100.00;98430.13;1496497;93;21248;-57
2023/03/24 04:41:59;;;;;;;10.10;8.93;;;;;;;6.89;99.99;98422.61;1514773;93;21034;-58
2023/03/24 04:44:27;;;;;;;9.65;8.65;;;;;;;6.90;100.00;98417.36;1511359;93;21198;-57
2023/03/24 04:46:56;;;;;;;11.80;9.00;;;;;;;6.91;100.00;98412.53;1462175;95;21153;-58
2023/03/24 04:49:24;;;;;;;10.00;8.38;;;;;;;6.93;100.00;98419.78;1467141;95;21174;-57
2023/03/24 04:51:50;;;;;;;10.03;8.75;;;;;;;6.95;100.00;98412.77;1454900;95;21258;-56
2023/03/24 04:54:20;;;;;;;11.03;9.93;;;;;;;6.98;100.00;98413.53;1459997;96;21088;-57
2023/03/24 04:56:55;;;;;;;11.75;9.00;;;;;;;7.01;100.00;98410.77;1506358;93;21472;-56
2023/03/24 04:59:21;;;;;;;12.55;9.90;;;;;;;7.03;100.00;98411.06;1500246;94;21168;-58
2023/03/24 05:01:51;;;;;;;12.00;8.70;;;;;;;7.08;100.00;98405.14;1501972;93;21041;-56
2023/03/24 05:04:22;;;;;;;11.05;9.80;;;;;;;7.13;100.00;98408.33;1548063;88;21799;-56
2023/03/24 05:06:49;;;;;;;10.15;8.90;;;;;;;7.18;100.00;98411.52;1567484;88;21136;-56
2023/03/24 05:09:22;;;;;;;13.65;9.38;;;;;;;7.30;100.00;98397.02;1566543;89;21120;-57
2023/03/24 05:11:49;;;;;;;10.68;8.93;;;;;;;7.38;99.92;98383.63;1640493;84;21120;-57
2023/03/24 05:14:16;;;;;;;11.45;9.18;;;;;;;7.46;100.00;98376.72;1647342;85;21133;-57
2023/03/24 05:16:42;;;;;;;10.28;9.28;;;;;;;7.50;100.00;98373.01;1645717;84;21014;-57
2023/03/24 05:19:10;;;;;;;12.10;8.87;;;;;;;7.55;99.73;98371.00;1648729;84;21627;-57
2023/03/24 05:21:37;;;;;;;11.43;8.93;;;;;;;7.58;100.00;98356.53;1656742;83;21110;-58
2023/03/24 05:24:03;;;;;;;10.18;8.80;;;;;;;7.63;99.99;98354.52;1636491;85;21085;-56
2023/03/24 05:26:30;;;;;;;15.50;9.47;;;;;;;7.67;99.72;98361.20;1646662;84;21033;-56
2023/03/24 05:28:56;;;;;;;11.25;8.60;;;;;;;7.71;99.52;98357.52;1647622;83;21322;-57
2023/03/24 05:31:23;;;;;;;10.23;8.70;;;;;;;7.73;99.32;98353.08;1645593;84;21633;-56
2023/03/24 05:33:49;;;;;;;16.10;9.45;;;;;;;7.75;99.27;98332.19;1652413;83;21089;-56
2023/03/24 05:36:16;;;;;;;12.53;8.55;;;;;;;7.77;99.62;98329.88;1652714;83;21007;-56
2023/03/24 05:38:42;;;;;;;9.98;8.85;;;;;;;7.80;100.00;98327.09;1634540;84;21042;-59
2023/03/24 05:41:08;;;;;;;9.48;7.65;;;;;;;7.85;100.00;98336.77;1640082;85;21027;-59
2023/03/24 05:43:35;;;;;;;11.00;7.55;;;;;;;7.93;100.00;98332.90;1650677;84;21042;-56
2023/03/24 05:46:01;;;;;;;12.70;7.60;;;;;;;7.98;100.00;98329.09;1656877;84;21682;-56
2023/03/24 05:48:27;;;;;;;11.05;7.70;;;;;;;8.01;100.00;98317.66;1646375;83;21102;-56
2023/03/24 05:50:54;;;;;;;9.13;7.53;;;;;;;8.09;100.00;98321.94;1653504;84;21104;-56
2023/03/24 05:53:21;;;;;;;10.98;7.50;;;;;;;8.14;100.00;98314.71;1657709;84;21052;-57
2023/03/24 05:55:47;;;;;;;9.00;7.20;;;;;;;8.22;100.00;98326.79;1662205;84;21582;-56
2023/03/24 05:58:14;;;;;;;9.45;6.75;;;;;;;8.29;99.81;98312.98;1650053;84;21121;-56
2023/03/24 06:00:40;;;;;;;8.10;6.97;;;;;;;8.37;99.54;98311.19;1659219;83;20974;-57
2023/03/24 06:03:07;;;;;;;10.40;7.15;;;;;;;8.38;99.61;98312.88;1646747;84;20982;-56
2023/03/24 06:05:33;;;;;;;10.15;6.90;;;;;;;8.41;99.36;98310.13;1651785;84;21125;-56
2023/03/24 06:08:00;;;;;;;6.80;6.10;;;;;;;8.45;99.41;98304.62;1643941;84;21121;-57
2023/03/24 06:10:28;;;;;;;9.05;6.37;;;;;;;8.47;99.20;98301.94;1649635;85;21063;-57
2023/03/24 06:12:54;;;;;;;9.05;6.25;;;;;;;8.52;99.04;98297.30;1655414;84;21113;-56
2023/03/24 06:15:23;;;;;;;12.23;6.05;;;;;;;8.57;98.93;98295.25;1654937;84;21044;-56
2023/03/24 06:17:49;;;;;;;7.20;5.83;;;;;;;8.62;98.83;98293.17;1652570;82;21138;-56
2023/03/24 06:20:17;;;;;;;8.58;5.97;;;;;;;8.65;98.72;98289.08;1652425;84;21023;-56
2023/03/24 06:22:46;;;;;;;7.22;5.72;;;;;;;8.68;98.71;98290.22;1650843;84;21565;-57
2023/03/24 06:25:15;;;;;;;10.30;6.05;;;;;;;8.71;98.80;98292.63;1654490;84;21064;-57
2023/03/24 06:27:46;;;;;;;10.58;6.03;;;;;;;8.74;98.74;98282.02;1648315;85;20989;-56
2023/03/24 06:30:16;;;;;;;8.83;6.75;;;;;;;8.79;98.64;98283.48;1643752;84;21065;-56
2023/03/24 06:32:47;;;;;;;8.88;6.58;;;;;;;8.82;98.42;98271.58;1643299;84;21117;-56
2023/03/24 06:35:15;;;;;;;11.30;6.50;;;;;;;8.86;98.38;98279.58;1648542;84;21560;-56
2023/03/24 06:37:42;;;;;;;10.80;6.55;;;;;;;8.91;98.31;98280.95;1650898;85;21059;-58
2023/03/24 06:40:12;;;;;;;7.50;6.15;;;;;;;8.96;98.30;98277.60;1659181;84;21058;-56
2023/03/24 06:42:38;;;;;;;12.03;6.70;;;;;;;9.01;98.12;98273.38;1642579;83;21035;-56
2023/03/24 06:45:05;;;;;;;17.02;7.47;;;;;;;9.11;98.11;98264.06;1655408;84;21091;-56
2023/03/24 06:47:31;;;;;;;9.13;7.22;;;;;;;9.18;97.85;98262.71;1646830;84;21604;-56
2023/03/24 06:49:59;;;;;;;8.55;6.92;;;;;;;9.30;97.81;98258.94;1642293;83;20987;-56
2023/03/24 06:52:26;;;;;;;;;;;;;;;9.39;97.63;98251.84;1656471;84;21118;-57
2023/03/24 06:54:53;;;;;;;10.58;6.95;;;;;;;9.50;97.24;98242.02;1645033;84;20475;-57
2023/03/24 06:57:19;;;;;;;13.95;7.95;;;;;;;9.59;97.16;98247.45;1646459;84;21033;-57
2023/03/24 06:59:46;;;;;;;12.98;8.15;;;;;;;9.68;97.18;98236.05;1651066;84;21141;-56
2023/03/24 07:02:18;;;;;;;9.27;6.20;;;;;;;9.75;97.20;98234.70;1655927;84;21734;-58
2023/03/24 07:04:41;;;;;;;6.95;5.58;;;;;;;9.80;97.04;98231.30;1649997;84;21544;-58
2023/03/24 07:07:11;;;;;;;7.12;4.47;;;;;;;9.86;96.63;98226.99;1651417;84;21097;-56
2023/03/24 07:09:38;;;;;;;7.33;5.37;;;;;;;9.93;96.31;98233.91;1653641;84;21103;-57
2023/03/24 07:12:05;;;;;;;5.92;4.22;;;;;;;10.05;96.62;98228.70;1647157;85;21050;-57
2023/03/24 07:14:32;;;;;;;9.68;5.20;;;;;;;10.17;95.42;98215.75;1648725;84;21133;-57
2023/03/24 07:16:58;;;;;;;7.70;4.67;;;;;;;10.29;95.87;98217.53;1654323;83;21094;-57
2023/03/24 07:19:24;;;;;;;4.83;4.30;;;;;;;10.42;95.90;98216.17;1642985;84;21072;-55
2023/03/24 07:21:51;;;;;;;5.85;4.30;;;;;;;10.46;94.78;98208.04;1648177;84;21482;-57
2023/03/24 07:24:18;;;;;;;6.62;4.00;;;;;;;10.49;94.01;98202.59;1653373;84;21036;-56
2023/03/24 07:26:45;;;;;;;7.42;4.45;;;;;;;10.55;94.66;98195.28;1649756;84;21224;-57
2023/03/24 07:29:13;;;;;;;5.08;3.95;;;;;;;10.55;94.21;98191.36;1644205;85;21017;-57
2023/03/24 07:31:39;;;;;;;6.92;4.33;;;;;;;10.55;94.30;98188.28;1655984;84;21172;-56
2023/03/24 07:34:07;;;;;;;8.20;4.45;;;;;;;10.58;94.30;98184.62;1653315;84;21043;-58
2023/03/24 07:36:33;;;;;;;4.60;3.80;;;;;;;10.60;94.26;98182.73;1645354;85;21173;-59
2023/03/24 07:39:00;;;;;;;6.00;3.83;;;;;;;10.54;93.45;98176.19;1648584;84;21015;-58
2023/03/24 07:41:28;;;;;;;5.22;3.40;;;;;;;10.56;94.10;98174.30;1647619;84;21036;-58
2023/03/24 07:43:54;;;;;;;5.47;3.87;;;;;;;10.56;94.15;98173.45;1651348;85;21634;-58
2023/03/24 07:46:21;;;;;;;4.20;3.80;;;;;;;10.61;94.08;98168.73;1655261;84;21029;-58
2023/03/24 07:48:47;;;;;;;5.80;3.62;;;;;;;10.67;94.02;98163.06;1659013;84;21579;-58
2023/03/24 07:51:13;;;;;;;18.17;9.05;;;;;;;10.62;93.81;98160.81;1646013;83;21029;-57
2023/03/24 07:53:39;;;;;;;17.80;16.00;;;;;;;10.48;94.26;98155.28;1643289;83;21528;-59
2023/03/24 07:56:06;;;;;;;6.75;4.00;;;;;;;10.28;94.41;98152.79;1639485;85;21079;-57
2023/03/24 07:58:33;;;;;;;5.45;4.12;;;;;;;10.12;95.67;98161.77;1654449;84;21039;-57
2023/03/24 08:01:00;;;;;;;5.22;4.22;;;;;;;10.03;96.03;98153.66;1652840;84;21663;-58
2023/03/24 08:03:28;;;;;;;6.78;5.83;;;;;;;9.92;96.58;98148.35;1657440;83;21085;-58
2023/03/24 08:05:54;;;;;;;;;;;;;;;9.90;97.09;98151.53;1647767;84;21508;-57
2023/03/24 08:08:21;;;;;;;11.55;8.10;;;;;;;9.78;98.02;98139.36;1650447;83;20162;-59
2023/03/24 08:10:49;;;;;;;7.57;6.87;;;;;;;9.71;98.30;98131.58;1662662;84;21070;-60
2023/03/24 08:13:17;;;;;;;6.47;5.67;;;;;;;9.69;98.92;98136.06;1645619;83;21617;-59
2023/03/24 08:15:43;;;;;;;;;;;;;;;9.63;99.35;98130.36;1643699;85;21592;-59
2023/03/24 08:18:09;;;;;;;6.28;5.17;;;;;;;9.56;99.78;98136.91;1642394;85;20190;-59
2023/03/24 08:20:35;;;;;;;4.97;4.42;;;;;;;9.55;99.75;98132.66;1653539;84;21113;-58
2023/03/24 08:23:03;;;;;;;5.53;4.95;;;;;;;9.53;100.00;98131.91;1648191;84;21022;-58
2023/03/24 08:25:30;;;;;;;6.03;4.87;;;;;;;9.50;100.00;98124.31;1646658;84;21440;-58
2023/03/24 08:27:57;;;;;;;6.00;4.03;;;;;;;9.52;100.00;98114.62;1650446;84;21029;-58
2023/03/24 08:30:27;;;;;;;7.50;5.72;;;;;;;9.52;100.00;98114.62;1653538;83;21309;-59
2023/03/24 08:33:00;;;;;;;9.70;4.85;;;;;;;9.57;100.00;98107.77;1645211;84;21076;-57
2023/03/24 08:35:30;;;;;;;11.20;10.10;;;;;;;9.72;100.00;98104.56;1651335;84;21157;-58
2023/03/24 08:37:58;;;;;;;8.55;5.75;;;;;;;9.83;100.00;98092.92;1648851;85;21055;-58
2023/03/24 08:40:27;;;;;;;5.58;4.47;;;;;;;9.94;100.00;98102.16;1649311;84;21099;-58
2023/03/24 08:42:56;;;;;;;10.90;5.47;;;;;;;10.03;100.00;98087.63;1653260;83;21101;-59
2023/03/24 08:45:26;;;;;;;5.22;4.20;;;;;;;9.92;100.00;98089.69;1652046;84;21026;-58
2023/03/24 08:47:53;;;;;;;10.65;7.15;;;;;;;9.94;100.00;98082.60;1653091;84;21021;-58
2023/03/24 08:50:22;;;;;;;8.88;5.30;;;;;;;9.99;100.00;98081.78;1651371;83;21110;-58
2023/03/24 08:52:49;;;;;;;7.03;5.15;;;;;;;10.03;100.00;98066.77;1653366;83;21061;-58
2023/03/24 08:55:18;;;;;;;7.45;4.70;;;;;;;10.01;100.00;98049.92;1643047;84;21603;-57
2023/03/24 08:57:44;;;;;;;7.50;5.47;;;;;;;10.04;100.00;98042.35;1643783;83;21555;-59
2023/03/24 09:00:14;;;;;;;5.90;4.58;;;;;;;10.22;100.00;98045.39;1651459;84;21175;-57
2023/03/24 09:02:41;;;;;;;7.90;6.30;;;;;;;10.15;100.00;98044.19;1653283;84;23434;-59
2023/03/24 09:05:09;;;;;;;7.80;5.05;;;;;;;10.08;100.00;98032.91;1648173;83;21568;-58
2023/03/24 09:07:35;;;;;;;5.20;4.42;;;;;;;10.02;100.00;98022.89;1650397;84;21050;-59
2023/03/24 09:10:01;;;;;;;7.60;5.70;;;;;;;10.00;100.00;98026.10;1652179;84;21089;-58
2023/03/24 09:12:28;;;;;;;5.17;4.40;;;;;;;10.01;100.00;98025.15;1643851;84;21061;-58
2023/03/24 09:14:54;;;;;;;6.50;4.67;;;;;;;10.04;100.00;98018.41;1649193;84;21569;-58
2023/03/24 09:17:21;;;;;;;6.90;5.53;;;;;;;10.20;100.00;98012.92;1650160;83;21046;-58
2023/03/24 09:19:47;;;;;;;4.70;3.98;;;;;;;10.39;100.00;98005.92;1646219;83;21155;-58
2023/03/24 09:22:13;;;;;;;6.03;4.37;;;;;;;10.51;100.00;98007.61;1646115;84;21533;-58
2023/03/24 09:24:39;;;;;;;5.60;4.30;;;;;;;10.62;100.00;98011.21;1648723;84;21050;-58
2023/03/24 09:27:06;;;;;;;4.70;4.03;;;;;;;10.87;100.00;97995.36;1645676;83;21080;-59
2023/03/24 09:29:32;;;;;;;6.20;4.15;;;;;;;10.87;100.00;97995.36;1656418;83;21043;-59
2023/03/24 09:31:58;;;;;;;5.12;3.92;;;;;;;11.15;100.00;97988.03;1651676;84;21055;-59
2023/03/24 09:34:25;;;;;;;5.17;4.67;;;;;;;11.20;97.92;97958.44;1646702;83;22526;-59
2023/03/24 09:36:51;;;;;;;6.12;4.12;;;;;;;11.20;97.92;97958.44;1646892;83;21050;-58
2023/03/24 09:39:18;;;;;;;6.33;4.37;;;;;;;11.42;98.44;97978.02;1640560;83;21529;-58
2023/03/24 09:41:44;;;;;;;4.45;4.00;;;;;;;11.65;99.02;97976.23;1648272;84;21027;-58
2023/03/24 09:44:26;;;;;;;5.65;4.50;;;;;;;11.89;98.17;97966.56;1654281;83;21092;-58
2023/03/24 09:47:14;;;;;;;4.55;4.08;;;;;;;12.09;96.77;97954.00;1649420;84;21120;-59
2023/03/24 09:49:42;;;;;;;4.62;3.72;;;;;;;12.28;95.59;97944.17;1651029;83;21579;-58
2023/03/24 09:52:12;;;;;;;4.25;3.60;;;;;;;12.66;96.65;97940.14;1648739;84;21075;-58
2023/03/24 09:55:00;;;;;;;3.77;3.42;;;;;;;13.04;95.67;97940.83;1654468;83;21249;-58
2023/03/24 09:57:41;;;;;;;7.35;4.22;;;;;;;13.48;95.42;97932.25;1653940;84;20971;-58
2023/03/24 10:00:23;;;;;;;4.25;3.83;;;;;;;13.78;94.09;97918.69;1653553;84;21050;-59
2023/03/24 10:02:51;;;;;;;4.67;4.10;;;;;;;14.29;93.15;97917.61;1660906;83;21055;-59
2023/03/24 10:05:24;;;;;;;4.95;3.60;;;;;;;15.30;91.49;97912.13;1644785;84;21588;-59
2023/03/24 10:07:57;;;;;;;5.03;3.92;;;;;;;16.63;90.11;97915.83;1642429;84;21094;-59
2023/03/24 10:10:36;;;;;;;7.62;3.70;;;;;;;16.84;85.90;97915.51;1652583;83;21540;-58
2023/03/24 10:13:08;;;;;;;5.28;3.35;;;;;;;16.94;88.71;97908.30;1561430;88;21725;-59
2023/03/24 10:15:44;;;;;;;6.80;4.03;;;;;;;16.92;86.99;97915.55;1594557;87;21130;-58
2023/03/24 10:18:22;;;;;;;7.75;4.05;;;;;;;16.33;82.75;97912.17;1582246;87;21118;-59
2023/03/24 10:21:06;;;;;;;7.45;4.00;;;;;;;15.69;82.59;97922.45;1574664;88;21122;-58
2023/03/24 10:23:59;;;;;;;6.42;4.50;;;;;;;15.19;84.14;97922.84;1586312;87;21775;-57
2023/03/24 10:26:44;;;;;;;4.47;4.08;;;;;;;14.67;85.09;97904.07;1568625;88;21093;-58
2023/03/24 10:29:26;;;;;;;5.42;4.00;;;;;;;14.62;87.13;97914.17;1504660;93;21149;-59
2023/03/24 10:31:58;;;;;;;4.83;4.37;;;;;;;15.43;91.27;97909.13;1506519;93;21168;-58
2023/03/24 10:34:28;;;;;;;5.55;4.47;;;;;;;16.02;85.53;97905.64;1505341;92;21094;-59
2023/03/24 10:36:58;;;;;;;4.67;4.00;;;;;;;16.43;85.97;97904.66;1501106;93;21149;-59
2023/03/24 10:39:25;;;;;;;5.42;4.10;;;;;;;16.41;83.58;97903.98;1501489;92;21102;-59
2023/03/24 10:41:53;;;;;;;5.75;4.28;;;;;;;16.83;86.09;97894.06;1503996;92;21163;-58
2023/03/24 10:44:21;;;;;;;6.05;3.90;;;;;;;17.86;86.23;97894.77;1504093;93;21126;-59
2023/03/24 10:46:51;;;;;;;5.67;3.87;;;;;;;18.68;75.22;97890.77;1513639;93;21132;-59
2023/03/24 10:49:20;;;;;;;4.40;3.70;;;;;;;18.69;82.53;97887.16;1523162;90;21091;-58
2023/03/24 10:51:55;;;;;;;5.10;4.42;;;;;;;18.14;83.04;97881.27;1544396;90;21111;-58
2023/03/24 10:54:24;;;;;;;6.03;4.67;;;;;;;18.53;84.61;97887.50;1564562;89;21084;-58
2023/03/24 10:57:02;;;;;;;7.12;5.62;;;;;;;20.67;88.90;97868.13;1558042;90;21725;-58
2023/03/24 10:59:53;;;;;;;6.47;4.65;;;;;;;20.96;80.03;97877.09;1562602;89;21651;-59
2023/03/24 11:02:28;;;;;;;4.85;4.35;;;;;;;20.49;78.03;97875.56;1555584;89;21094;-59
2023/03/24 11:05:17;;;;;;;4.42;3.42;;;;;;;19.58;75.99;97879.89;1570403;87;21454;-58
2023/03/24 11:07:46;;;;;;;4.53;3.80;;;;;;;18.62;80.44;97874.27;1659626;83;21042;-59
2023/03/24 11:10:17;;;;;;;5.17;3.80;;;;;;;17.79;79.63;97877.95;1661699;82;21095;-58
2023/03/24 11:12:56;;;;;;;4.30;3.58;;;;;;;17.18;81.62;97887.31;1646589;84;21018;-58
2023/03/24 11:15:29;;;;;;;4.78;3.75;;;;;;;16.73;79.37;97884.94;1660713;84;21069;-58
2023/03/24 11:18:02;;;;;;;4.58;3.62;;;;;;;16.33;81.30;97888.97;1649710;83;21517;-59
2023/03/24 11:20:35;;;;;;;5.12;4.03;;;;;;;16.12;81.16;97882.70;1653958;84;21101;-58
2023/03/24 11:23:14;;;;;;;5.78;3.90;;;;;;;16.03;82.52;97882.31;1651101;83;21498;-59
2023/03/24 11:25:43;;;;;;;4.70;3.70;;;;;;;15.93;82.17;97881.55;1651924;84;21035;-60
2023/03/24 11:28:19;;;;;;;10.50;3.65;;;;;;;15.87;82.54;97873.77;1649763;84;21057;-59
2023/03/24 11:30:48;;;;;;;4.78;3.52;;;;;;;15.72;82.11;97867.39;1649203;84;21447;-60
2023/03/24 11:33:32;;;;;;;9.10;3.40;;;;;;;15.66;82.32;97864.84;1649956;84;21524;-58
2023/03/24 11:53:03;;;;;;;3.77;2.80;;;;;;;15.23;84.79;97847.95;1817830;77;28744;-57
2023/03/24 11:55:36;;;;;;;2.90;2.30;;;;;;;15.11;84.36;97846.51;1777911;78;21167;-59
2023/03/24 11:58:05;;;;;;;5.15;2.15;;;;;;;15.02;83.17;97842.14;1774489;78;20943;-59
2023/03/24 12:00:39;;;;;;;2.83;2.00;;;;;;;14.90;84.68;97837.08;1810132;77;21027;-58
2023/03/24 12:03:43;;;;;;;4.70;2.75;;;;;;;14.86;84.78;97841.44;1777677;78;20957;-57
2023/03/24 12:06:22;;;;;;;3.77;1.75;;;;;;;14.86;81.47;97840.95;1815434;77;21523;-61
2023/03/24 12:09:22;;;;;;;2.45;2.22;;;;;;;14.83;82.87;97835.98;1819849;77;20942;-59